Time;durP1;ratioP1;P1;durP2;ratioP2;P2;SDS_P1;SDS_P2;PMS_P1;PMS_P2;Temp;Humidity;BMP_temperature;BMP_pressure;BME280_temperature;BME280_humidity;BME280_pressure;Samples;Min_cycle;Max_cycle;Signal;HPM_P1;HPM_P2
2022/06/16 00:00:08;;;;;;;;;;;;;;;26.80;61.75;99856.16;2042456;29;20346;-77
2022/06/16 00:01:08;;;;;;;;;;;;;;;26.81;61.65;99852.13;2036138;29;20009;-76
2022/06/16 00:02:11;;;;;;;;;;;;;;;26.81;61.71;99851.34;2029914;29;20377;-76
2022/06/16 00:03:12;;;;;;;;;;;;;;;26.80;61.88;99853.41;2040343;29;19917;-77
2022/06/16 00:04:12;;;;;;;;;;;;;;;26.81;61.72;99854.13;2037874;29;20377;-76
2022/06/16 00:05:15;;;;;;;;;;;;;;;26.80;61.85;99858.94;2023215;29;19934;-76
2022/06/16 00:06:16;;;;;;;;;;;;;;;26.80;61.71;99858.94;2032559;29;19919;-77
2022/06/16 00:07:16;;;;;;;;;;;;;;;26.80;61.91;99863.75;2038832;29;19937;-75
2022/06/16 00:08:18;;;;;;;;;;;;;;;26.80;61.84;99864.50;2039528;28;20795;-76
2022/06/16 00:09:18;;;;;;;;;;;;;;;26.79;61.96;99862.97;2037515;29;19917;-76
2022/06/16 00:10:19;;;;;;;;;;;;;;;26.80;61.81;99866.50;2046216;28;19910;-76
2022/06/16 00:11:20;;;;;;;;;;;;;;;26.78;61.82;99864.19;2041134;28;20420;-77
2022/06/16 00:12:20;;;;;;;;;;;;;;;26.79;61.64;99862.97;2035992;29;20463;-76
2022/06/16 00:13:20;;;;;;;;;;;;;;;26.79;61.78;99864.97;2041808;28;19918;-76
2022/06/16 00:14:23;;;;;;;;;;;;;;;26.78;61.74;99864.19;2038129;29;20022;-75
2022/06/16 00:15:25;;;;;;;;;;;;;;;26.78;61.54;99863.44;2022051;29;20449;-76
2022/06/16 00:16:25;;;;;;;;;;;;;;;26.77;61.94;99854.31;2031483;29;20441;-76
2022/06/16 00:17:26;;;;;;;;;;;;;;;26.77;61.97;99868.22;2044553;29;19910;-77
2022/06/16 00:18:27;;;;;;;;;;;;;;;26.76;61.66;99858.34;2039952;29;19966;-77
2022/06/16 00:19:27;;;;;;;;;;;;;;;26.76;61.65;99863.88;2037906;29;20421;-77
2022/06/16 00:20:28;;;;;;;12.40;4.70;;;;;;;26.76;61.77;99869.44;2037872;29;19941;-76
2022/06/16 00:21:28;;;;;;;;;;;;;;;26.74;61.51;99860.84;2035951;29;19914;-78
2022/06/16 00:22:29;;;;;;;;;;;;;;;26.76;61.59;99865.91;2023413;29;19911;-77
2022/06/16 00:23:29;;;;;;;;;;;;;;;26.75;61.86;99867.16;2022374;29;19911;-77
2022/06/16 00:24:29;;;;;;;;;;;;;;;26.75;61.63;99861.59;2027657;29;19915;-79
2022/06/16 00:25:31;;;;;;;;;;;;;;;26.74;61.84;99866.38;2034920;29;19911;-80
2022/06/16 00:26:32;;;;;;;;;;;;;;;26.74;61.79;99869.16;2034893;29;19926;-80
2022/06/16 00:27:32;;;;;;;;;;;;;;;26.73;61.69;99864.84;2034650;29;19919;-79
2022/06/16 00:28:32;;;;;;;7.00;3.40;;;;;;;26.74;61.73;99866.38;2038909;29;20385;-80
2022/06/16 00:29:34;;;;;;;10.45;4.20;;;;;;;26.73;61.66;99867.63;2035524;28;19922;-79
2022/06/16 00:30:35;;;;;;;;;;;;;;;26.73;61.82;99864.84;2041893;29;20304;-79
2022/06/16 00:31:36;;;;;;;;;;;;;;;26.74;61.74;99868.41;2031363;29;19933;-80
2022/06/16 00:32:41;;;;;;;;;;;;;;;26.72;61.75;99862.53;2028329;29;19938;-80
2022/06/16 00:33:41;;;;;;;;;;;;;;;26.72;61.64;99868.84;2032905;29;20469;-80
2022/06/16 00:34:42;;;;;;;6.90;4.20;;;;;;;26.72;61.60;99860.53;2020772;29;20038;-80
2022/06/16 00:35:43;;;;;;;;;;;;;;;26.71;61.57;99856.19;2029630;29;19916;-80
2022/06/16 00:36:43;;;;;;;;;;;;;;;26.71;61.85;99861.75;2030950;29;19986;-80
2022/06/16 00:37:44;;;;;;;;;;;;;;;26.70;61.77;99854.66;2027277;29;20106;-80
2022/06/16 00:38:44;;;;;;;;;;;;;;;26.71;61.60;99858.22;2035291;29;19918;-80
2022/06/16 00:39:45;;;;;;;;;;;;;;;26.69;61.90;99858.69;2028536;29;25100;-80
2022/06/16 00:40:45;;;;;;;;;;;;;;;26.69;61.57;99857.94;2030742;29;20467;-80
2022/06/16 00:41:46;;;;;;;;;;;;;;;26.69;61.90;99847.59;2037404;28;19961;-80
2022/06/16 00:42:46;;;;;;;;;;;;;;;26.69;61.74;99861.47;2028457;29;19915;-80
2022/06/16 00:43:46;;;;;;;;;;;;;;;26.68;61.71;99851.59;2020712;29;20022;-80
2022/06/16 00:44:51;;;;;;;;;;;;;;;26.69;61.89;99853.16;2025819;29;20057;-80
2022/06/16 00:46:01;;;;;;;13.60;4.70;;;;;;;26.68;61.57;99856.38;2023310;29;19923;-80
2022/06/16 00:47:02;;;;;;;;;;;;;;;26.67;61.74;99858.38;2029271;29;19982;-80
2022/06/16 00:48:02;;;;;;;;;;;;;;;26.67;61.63;99852.06;2026543;29;19950;-80
2022/06/16 00:49:05;;;;;;;;;;;;;;;26.68;61.85;99861.94;2027135;29;20458;-80
2022/06/16 00:50:06;;;;;;;;;;;;;;;26.68;61.71;99857.16;2026665;29;19915;-80
2022/06/16 00:51:24;;;;;;;;;;;;;;;26.67;61.59;99861.16;2034701;29;20381;-80
2022/06/16 00:52:27;;;;;;;;;;;;;;;26.67;61.81;99854.84;2031111;29;19970;-80
2022/06/16 00:53:28;;;;;;;;;;;;;;;26.66;61.76;99851.28;2035316;29;19929;-80
2022/06/16 00:54:32;;;;;;;;;;;;;;;26.66;61.73;99858.84;2036870;29;19922;-78
2022/06/16 00:55:33;;;;;;;;;;;;;;;26.65;61.68;99846.22;2032351;29;19915;-79
2022/06/16 00:56:34;;;;;;;;;;;;;;;26.64;61.64;99837.13;2036334;29;19990;-79
2022/06/16 00:57:37;;;;;;;;;;;;;;;26.65;61.71;99838.63;2036424;29;20142;-80
2022/06/16 00:58:40;;;;;;;;;;;;;;;26.64;61.64;99839.13;2035765;29;20660;-80
2022/06/16 00:59:41;;;;;;;;;;;;;;;26.65;61.59;99846.97;2032031;29;19922;-79
2022/06/16 01:00:45;;;;;;;;;;;;;;;26.64;61.69;99848.22;2037105;29;20374;-79
2022/06/16 01:01:46;;;;;;;;;;;;;;;26.65;61.87;99844.19;2037116;29;19911;-80
2022/06/16 01:02:46;;;;;;;;;;;;;;;26.65;62.03;99840.66;2028224;29;19984;-79
2022/06/16 01:05:06;;;;;;;;;;;;;;;26.64;61.75;99839.13;2037514;29;19994;-79
2022/06/16 01:06:20;;;;;;;;;;;;;;;26.64;61.88;99836.34;2036971;29;20231;-80
2022/06/16 01:07:24;;;;;;;;;;;;;;;26.64;61.53;99839.13;2027807;29;19915;-80
2022/06/16 01:08:24;;;;;;;;;;;;;;;26.64;61.64;99833.56;2026007;29;20344;-80
2022/06/16 01:09:27;;;;;;;;;;;;;;;26.64;61.55;99839.13;2034183;28;19915;-80
2022/06/16 01:10:33;;;;;;;;;;;;;;;26.63;61.76;99835.56;2039393;28;19922;-79
2022/06/16 01:13:41;;;;;;;;;;;;;;;26.61;61.67;99834.50;2036550;28;20017;-79
2022/06/16 01:15:02;;;;;;;;;;;;;;;26.60;61.74;99847.63;2036795;29;19919;-79
2022/06/16 01:16:10;;;;;;;;;;;;;;;26.60;61.67;99850.38;2039852;28;19997;-78
2022/06/16 01:17:25;;;;;;;;;;;;;;;26.59;61.77;99846.09;2035619;29;20552;-79
2022/06/16 01:18:31;;;;;;;;;;;;;;;26.59;61.47;99846.09;2038697;29;20392;-79
2022/06/16 01:19:31;;;;;;;;;;;;;;;26.58;61.60;99852.88;2040572;29;19915;-78
2022/06/16 01:20:54;;;;;;;;;;;;;;;26.58;61.70;99852.13;2038752;29;19909;-79
2022/06/16 01:21:58;;;;;;;;;;;;;;;26.57;61.45;99845.78;2033824;29;19933;-79
2022/06/16 01:23:10;;;;;;;;;;;;;;;26.56;61.51;99849.03;2030947;29;20292;-79
2022/06/16 01:24:26;;;;;;;;;;;;;;;26.56;61.51;99846.25;2031637;28;20353;-79
2022/06/16 01:25:41;;;;;;;;;;;;;;;26.56;61.78;99843.47;2029858;29;19914;-78
2022/06/16 01:26:44;;;;;;;;;;;;;;;26.56;61.58;99854.59;2033626;29;19953;-78
2022/06/16 01:27:45;;;;;;;;;;;;;;;26.54;61.69;99843.97;2038459;29;19911;-79
2022/06/16 01:29:05;;;;;;;;;;;;;;;26.54;61.64;99852.28;2040384;29;19915;-78
2022/06/16 01:30:05;;;;;;;;;;;;;;;26.53;61.67;99850.75;2037639;28;20313;-79
2022/06/16 01:31:12;;;;;;;;;;;;;;;26.53;61.70;99845.19;2036721;29;19963;-79
2022/06/16 01:32:19;;;;;;;;;;;;;;;26.52;61.75;99848.44;2044518;28;19949;-79
2022/06/16 01:33:19;;;;;;;;;;;;;;;26.51;61.60;99847.66;2036927;29;19977;-79
2022/06/16 01:34:35;;;;;;;;;;;;;;;26.52;61.59;99854.00;2037062;29;19910;-79
2022/06/16 01:35:47;;;;;;;;;;;;;;;26.50;61.72;99857.22;2035638;29;19910;-79
2022/06/16 01:37:04;;;;;;;;;;;;;;;26.51;61.44;99860.78;2031073;29;19911;-79
2022/06/16 01:38:09;;;;;;;;;;;;;;;26.52;61.62;99859.53;2037719;29;19938;-79
2022/06/16 01:39:13;;;;;;;;;;;;;;;26.52;61.39;99865.09;2035711;29;19902;-79
2022/06/16 01:40:26;;;;;;;;;;;;;;;26.51;61.51;99864.31;2034715;29;19922;-79
2022/06/16 01:41:32;;;;;;;;;;;;;;;26.52;61.33;99859.53;2035617;29;19918;-79
2022/06/16 01:42:40;;;;;;;;;;;;;;;26.52;61.40;99876.22;2043349;28;19922;-79
2022/06/16 01:43:45;;;;;;;;;;;;;;;26.52;61.54;99865.88;2040168;28;19914;-79
2022/06/16 01:44:55;;;;;;;;;;;;;;;26.52;61.44;99876.22;2039266;29;20369;-79
2022/06/16 01:45:55;;;;;;;;;;;;;;;26.52;61.51;99878.97;2036432;29;19911;-79
2022/06/16 01:46:57;;;;;;;;;;;;;;;26.51;61.80;99871.88;2038868;28;19965;-79
2022/06/16 01:47:59;;;;;;;;;;;;;;;26.51;61.47;99874.66;2032186;29;19914;-78
2022/06/16 01:49:09;;;;;;;;;;;;;;;26.51;61.52;99871.88;2034974;29;19911;-79
2022/06/16 01:50:12;;;;;;;;;;;;;;;26.51;61.68;99869.09;2034632;29;19910;-79
2022/06/16 01:51:14;;;;;;;;;;;;;;;26.51;61.48;99874.66;2036186;29;24074;-79
2022/06/16 01:52:18;;;;;;;;;;;;;;;26.49;61.45;99870.34;2041862;28;20296;-79
2022/06/16 01:53:22;;;;;;;;;;;;;;;26.49;61.66;99873.13;2039678;28;20429;-82
2022/06/16 01:54:25;;;;;;;;;;;;;;;26.48;61.69;99866.06;2046437;28;20009;-82
2022/06/16 01:55:29;;;;;;;;;;;;;;;26.48;61.74;99865.28;2038596;29;19915;-82
2022/06/16 01:56:40;;;;;;;;;;;;;;;26.48;61.63;99868.06;2027791;29;19931;-82
2022/06/16 01:57:43;;;;;;;;;;;;;;;26.48;61.63;99873.59;2031655;29;19911;-82
2022/06/16 01:58:47;;;;;;;;;;;;;;;26.48;61.69;99862.50;2037005;29;19914;-82
2022/06/16 02:00:08;;;;;;;;;;;;;;;26.47;61.63;99872.84;2038312;29;19970;-82
2022/06/16 02:01:10;;;;;;;;;;;;;;;26.47;61.60;99869.28;2033416;29;19934;-82
2022/06/16 02:02:12;;;;;;;;;;;;;;;26.48;61.61;99868.06;2042144;28;19937;-83
2022/06/16 02:03:19;;;;;;;;;;;;;;;26.46;61.82;99862.19;2039263;29;19911;-83
2022/06/16 02:04:28;;;;;;;;;;;;;;;26.46;61.94;99868.50;2043767;29;20596;-82
2022/06/16 02:05:29;;;;;;;;;;;;;;;26.45;61.89;99869.75;2037487;29;19915;-81
2022/06/16 02:06:31;;;;;;;;;;;;;;;26.46;61.70;99867.75;2038875;29;19911;-82
2022/06/16 02:07:36;;;;;;;;;;;;;;;26.46;61.67;99873.28;2039338;28;19910;-82
2022/06/16 02:08:42;;;;;;;;;;;;;;;26.45;61.78;99871.75;2040753;28;20030;-82
2022/06/16 02:09:44;;;;;;;;;;;;;;;26.45;61.77;99863.41;2041161;29;20046;-82
2022/06/16 02:10:49;;;;;;;;;;;;;;;26.45;61.69;99871.75;2039089;29;19925;-81
2022/06/16 02:11:50;;;;;;;;;;;;;;;26.44;61.71;99876.53;2033158;29;19971;-82
2022/06/16 02:12:58;;;;;;;;;;;;;;;26.44;61.82;99872.97;2038200;29;19906;-83
2022/06/16 02:14:06;;;;;;;;;;;;;;;26.43;61.73;99869.47;2037091;29;19914;-82
2022/06/16 02:15:13;;;;;;;;;;;;;;;26.44;62.07;99872.97;2037642;29;20282;-82
2022/06/16 02:16:16;;;;;;;;;;;;;;;26.43;62.00;99868.69;2037953;29;20288;-83
2022/06/16 02:17:17;;;;;;;;;;;;;;;26.42;62.08;99869.94;2038230;28;20298;-83
2022/06/16 02:18:24;;;;;;;;;;;;;;;26.41;62.05;99863.59;2037210;29;20341;-82
2022/06/16 02:19:26;;;;;;;;;;;;;;;26.42;62.03;99867.16;2037292;29;19910;-83
2022/06/16 02:20:30;;;;;;;;;;;;;;;26.42;61.96;99864.38;2038244;29;20388;-83
2022/06/16 02:21:36;;;;;;;;;;;;;;;26.42;62.08;99867.16;2039511;29;20775;-82
2022/06/16 02:22:36;;;;;;;;;;;;;;;26.41;62.31;99865.59;2035754;29;19961;-81
2022/06/16 02:23:38;;;;;;;;;;;;;;;26.41;62.17;99865.59;2043340;28;19914;-80
2022/06/16 02:24:39;;;;;;;;;;;;;;;26.40;61.93;99870.38;2035931;29;19997;-80
2022/06/16 02:25:39;;;;;;;;;;;;;;;26.41;61.90;99865.59;2031600;29;19903;-79
2022/06/16 02:26:40;;;;;;;;;;;;;;;26.41;62.01;99868.38;2037351;29;19969;-79
2022/06/16 02:27:40;;;;;;;;;;;;;;;26.39;62.18;99862.50;2037238;29;19914;-80
2022/06/16 02:28:51;;;;;;;;;;;;;;;26.39;62.31;99862.50;2038167;29;19934;-81
2022/06/16 02:29:52;;;;;;;;;;;;;;;26.38;62.43;99867.31;2034196;29;19933;-79
2022/06/16 02:31:19;;;;;;;;;;;;;;;26.38;62.17;99863.78;2037658;29;19914;-80
2022/06/16 02:32:25;;;;;;;;;;;;;;;26.38;62.26;99872.88;2019763;29;20083;-80
2022/06/16 02:33:38;;;;;;;;;;;;;;;26.38;62.35;99872.09;2042851;28;20376;-80
2022/06/16 02:34:44;;;;;;;;;;;;;;;26.36;61.96;99867.00;2036180;29;20309;-80
2022/06/16 02:35:59;;;;;;;;;;;;;;;26.36;61.86;99863.47;2036676;29;20453;-79
2022/06/16 02:37:02;;;;;;;;;;;;;;;26.37;62.26;99862.22;2035970;29;19911;-79
2022/06/16 02:38:02;;;;;;;;;;;;;;;26.35;62.13;99867.47;2031827;29;20110;-80
2022/06/16 02:39:12;;;;;;;;;;;;;;;26.35;61.89;99856.38;2039596;29;19915;-80
2022/06/16 02:40:14;;;;;;;;;;;;;;;26.35;61.86;99867.47;2032405;29;19923;-81
2022/06/16 02:41:37;;;;;;;;;;;;;;;26.35;61.80;99859.91;2028900;29;19917;-80
2022/06/16 02:42:41;;;;;;;;;;;;;;;26.35;62.06;99856.38;2040670;28;19914;-80
2022/06/16 02:43:41;;;;;;;;;;;;;;;26.34;61.83;99858.38;2041762;28;20048;-80
2022/06/16 02:44:41;;;;;;;;;;;;;;;26.34;62.00;99861.16;2037710;29;20025;-80
2022/06/16 02:45:44;;;;;;;;;;;;;;;26.34;62.20;99860.38;2036723;29;19919;-80
2022/06/16 02:46:51;;;;;;;;;;;;;;;26.34;62.30;99866.69;2035538;29;20352;-80
2022/06/16 02:47:57;;;;;;;;;;;;;;;26.33;62.08;99865.16;2036202;29;19910;-81
2022/06/16 02:49:16;;;;;;;;;;;;;;;26.33;62.00;99859.59;2030492;29;19918;-80
2022/06/16 02:50:26;;;;;;;;;;;;;;;26.32;61.96;99857.31;2022854;29;20299;-80
2022/06/16 02:51:39;;;;;;;;;;;;;;;26.31;62.09;99859.31;2035894;29;19914;-82
2022/06/16 02:52:44;;;;;;;;;;;;;;;26.30;62.11;99855.00;2036252;28;19918;-79
2022/06/16 02:54:20;;;;;;;;;;;;;;;26.31;61.99;99855.78;2036413;29;19915;-79
2022/06/16 02:55:16;;;;;;;;;;;;;;;26.29;62.06;99858.25;2031234;29;19914;-79
2022/06/16 02:56:23;;;;;;;;;;;;;;;26.29;62.02;99858.25;2037090;29;20354;-79
2022/06/16 02:57:31;;;;;;;;;;;;;;;26.28;62.14;99859.50;2036245;29;20412;-79
2022/06/16 02:58:32;;;;;;;;;;;;;;;26.28;61.94;99857.47;2037172;29;19921;-80
2022/06/16 02:59:42;;;;;;;;;;;;;;;26.29;62.08;99858.25;2038048;29;20392;-80
2022/06/16 03:00:44;;;;;;;;;;;;;;;26.28;62.08;99862.28;2036264;29;19966;-80
2022/06/16 03:01:44;;;;;;;;;;;;;;;26.27;62.22;99855.94;2029892;29;20413;-80
2022/06/16 03:02:45;;;;;;;;;;;;;;;26.28;62.18;99860.25;2034721;29;20574;-80
2022/06/16 03:04:03;;;;;;;;;;;;;;;26.28;61.95;99851.16;2041533;28;19921;-80
2022/06/16 03:05:05;;;;;;;;;;;;;;;26.27;61.98;99861.50;2037727;29;19918;-80
2022/06/16 03:06:06;;;;;;;;;;;;;;;26.27;62.03;99867.06;2029361;29;20002;-80
2022/06/16 03:07:07;;;;;;;;;;;;;;;26.28;62.22;99865.06;2028455;29;19918;-81
2022/06/16 03:08:07;;;;;;;;;;;;;;;26.27;62.16;99861.50;2036871;29;20324;-81
2022/06/16 03:09:08;;;;;;;;;;;;;;;26.27;61.82;99866.28;2038419;29;19921;-80
2022/06/16 03:10:10;;;;;;;;;;;;;;;26.27;62.00;99871.84;2029707;29;19990;-80
2022/06/16 03:11:11;;;;;;;;;;;;;;;26.27;62.00;99866.28;2028504;29;19982;-81
2022/06/16 03:12:12;;;;;;;;;;;;;;;26.26;62.28;99864.75;2027403;29;19942;-81
2022/06/16 03:13:13;;;;;;;;;;;;;;;26.27;62.02;99863.50;2025615;29;20424;-80
2022/06/16 03:14:13;;;;;;;;;;;;;;;26.26;61.99;99864.75;2042867;28;20499;-80
2022/06/16 03:15:13;;;;;;;;;;;;;;;26.26;62.03;99865.50;2035347;29;20304;-80
2022/06/16 03:16:14;;;;;;;;;;;;;;;26.25;62.24;99871.53;2035157;29;19951;-81
2022/06/16 03:17:14;;;;;;;;;;;;;;;26.26;62.09;99873.06;2027274;29;19911;-80
2022/06/16 03:18:15;;;;;;;;;;;;;;;26.26;62.10;99873.06;2022977;29;19915;-80
2022/06/16 03:19:17;;;;;;;;;;;;;;;26.25;62.25;99868.75;2033658;29;19914;-80
2022/06/16 03:20:18;;;;;;;;;;;;;;;26.25;62.17;99874.28;2036949;28;19965;-80
2022/06/16 03:21:18;;;;;;;;;;;;;;;26.24;62.49;99873.53;2043357;28;19911;-79
2022/06/16 03:22:19;;;;;;;;;;;;;;;26.23;62.43;99866.44;2031639;29;19917;-80
2022/06/16 03:23:20;;;;;;;;;;;;;;;26.24;62.13;99867.97;2026818;29;19911;-80
2022/06/16 03:24:20;;;;;;;;;;;;;;;26.24;62.36;99875.53;2031515;29;19910;-80
2022/06/16 03:25:20;;;;;;;;;;;;;;;26.23;62.32;99876.75;2035921;29;19949;-80
2022/06/16 03:26:21;;;;;;;;;;;;;;;26.22;62.30;99869.66;2036698;29;19918;-80
2022/06/16 03:27:21;;;;;;;;;;;;;;;26.22;62.15;99870.47;2030297;29;19979;-81
2022/06/16 03:28:21;;;;;;;;;;;;;;;26.22;62.19;99866.88;2029142;29;19921;-81
2022/06/16 03:29:22;;;;;;;;;;;;;;;26.22;62.45;99872.44;2035221;29;20293;-80
2022/06/16 03:30:22;;;;;;;;;;;;;;;26.20;62.30;99864.56;2029497;29;19919;-80
2022/06/16 03:31:22;;;;;;;;;;;;;;;26.20;62.44;99870.13;2027758;29;19994;-81
2022/06/16 03:32:23;;;;;;;;;;;;;;;26.19;62.45;99868.56;2036124;28;20363;-80
2022/06/16 03:33:23;;;;;;;;;;;;;;;26.20;62.35;99861.03;2035307;29;20346;-80
2022/06/16 03:34:24;;;;;;;;;;;;;;;26.19;62.16;99868.56;2036288;29;20213;-81
2022/06/16 03:35:24;;;;;;;;;;;;;;;26.19;62.32;99862.25;2037443;29;19914;-79
2022/06/16 03:36:24;;;;;;;;;;;;;;;26.17;62.29;99857.19;2036327;29;20060;-79
2022/06/16 03:37:25;;;;;;;;;;;;;;;26.16;62.19;99861.19;2035854;29;20382;-80
2022/06/16 03:39:29;;;;;;;;;;;;;;;26.16;62.33;99857.66;2036769;29;19915;-80
2022/06/16 03:40:29;;;;;;;;;;;;;;;26.16;62.39;99858.41;2035847;29;19915;-80
2022/06/16 03:41:30;;;;;;;;;;;;;;;26.15;62.35;99856.09;2037342;29;19918;-80
2022/06/16 03:42:30;;;;;;;;;;;;;;;26.14;62.57;99858.09;2038115;28;20013;-80
2022/06/16 03:43:31;;;;;;;;;;;;;;;26.14;62.37;99857.34;2038815;29;19915;-80
2022/06/16 03:44:31;;;;;;;;;;;;;;;26.14;62.34;99857.34;2045272;29;19921;-79
2022/06/16 03:45:32;;;;;;;;;;;;;;;26.13;62.13;99862.13;2037899;29;19990;-81
2022/06/16 03:46:33;;;;;;;;;;;;;;;26.12;62.17;99862.59;2035984;29;19911;-81
2022/06/16 03:47:33;;;;;;;;;;;;;;;26.11;62.28;99861.81;2034574;29;19946;-80
2022/06/16 03:48:33;;;;;;;;;;;;;;;26.11;62.31;99855.50;2035054;29;19903;-81
2022/06/16 03:49:34;;;;;;;;;;;;;;;26.10;61.87;99865.06;2034070;29;19911;-80
2022/06/16 03:50:34;;;;;;;;;;;;;;;26.10;62.01;99862.28;2032337;29;19918;-80
2022/06/16 03:51:35;;;;;;;;;;;;;;;26.08;62.19;99855.19;2039154;28;19969;-80
2022/06/16 03:52:35;;;;;;;;;;;;;;;26.10;62.22;99862.28;2035849;29;19966;-81
2022/06/16 03:53:36;;;;;;;;;;;;;;;26.06;62.53;99860.47;2034918;29;19922;-80
2022/06/16 03:54:37;;;;;;;;;;;;;;;26.07;62.23;99858.41;2035600;29;19918;-80
2022/06/16 03:55:37;;;;;;;;;;;;;;;26.06;61.95;99868.00;2035330;29;19921;-80
2022/06/16 03:56:37;;;;;;;;;;;;;;;26.06;62.03;99870.78;2035956;29;20338;-80
2022/06/16 03:57:38;;;;;;;;;;;;;;;26.05;62.07;99863.69;2036056;29;19973;-80
2022/06/16 03:58:38;;;;;;;;;;;;;;;26.04;61.92;99876.03;2031595;29;19914;-82
2022/06/16 03:59:38;;;;;;;;;;;;;;;26.03;62.26;99874.47;2033467;29;20036;-83
2022/06/16 04:00:39;;;;;;;;;;;;;;;26.02;62.19;99879.25;2037207;29;20078;-83
2022/06/16 04:01:39;;;;;;;;;;;;;;;26.02;62.15;99878.47;2030845;29;19953;-82
2022/06/16 04:02:39;;;;;;;;;;;;;;;26.02;62.06;99879.25;2038617;29;19914;-83
2022/06/16 04:05:00;;;;;;;;;;;;;;;26.01;62.15;99877.72;2037061;29;19914;-83
2022/06/16 04:06:01;;;;;;;;;;;;;;;26.01;62.27;99877.72;2037791;29;20382;-82
2022/06/16 04:07:01;;;;;;;;;;;;;;;26.01;62.24;99877.72;2037742;29;19986;-82
2022/06/16 04:08:02;;;;;;;;;;;;;;;26.01;62.16;99877.72;2036292;29;19918;-82
2022/06/16 04:09:04;;;;;;;;;;;;;;;26.00;61.90;99872.66;2037132;29;19931;-82
2022/06/16 04:10:05;;;;;;;;;;;;;;;26.00;62.00;99878.19;2027530;29;19915;-82
2022/06/16 04:12:25;;;;;;;;;;;;;;;25.99;62.21;99882.19;2036412;29;20220;-82
2022/06/16 04:13:25;;;;;;;;;;;;;;;25.99;61.99;99880.19;2036575;29;19919;-82
2022/06/16 04:14:26;;;;;;;;;;;;;;;26.00;62.19;99880.97;2036307;29;19918;-82
2022/06/16 04:15:26;;;;;;;;;;;;;;;25.99;62.07;99882.97;2036853;29;19981;-82
2022/06/16 04:16:28;;;;;;;;;;;;;;;25.99;61.92;99888.53;2035767;29;19939;-82
2022/06/16 04:17:29;;;;;;;;;;;;;;;25.99;61.99;99885.75;2029735;29;20381;-82
2022/06/16 04:18:29;;;;;;;;;;;;;;;25.99;62.02;99885.75;2028634;29;19911;-82
2022/06/16 04:19:30;;;;;;;;;;;;;;;25.99;62.15;99899.63;2034385;29;19914;-83
2022/06/16 04:20:30;;;;;;;;;;;;;;;25.99;62.02;99907.16;2037097;29;19911;-82
2022/06/16 04:21:30;;;;;;;;;;;;;;;25.99;62.04;99907.94;2036674;29;19950;-83
2022/06/16 04:22:30;;;;;;;;;;;;;;;26.00;62.38;99901.16;2041087;28;19985;-83
2022/06/16 04:23:31;;;;;;;;;;;;;;;26.00;62.27;99908.72;2040233;28;20166;-83
2022/06/16 04:24:33;;;;;;;;;;;;;;;25.99;61.96;99907.94;2037190;29;20599;-82
2022/06/16 04:25:33;;;;;;;;;;;;;;;25.99;62.23;99913.50;2037351;29;19911;-82
2022/06/16 04:26:36;;;;;;;;;;;;;;;25.99;62.35;99907.94;2040843;28;19914;-83
2022/06/16 04:27:37;;;;;;;;;;;;;;;25.99;61.94;99907.94;2034400;29;19914;-82
2022/06/16 04:28:37;;;;;;;;;;;;;;;25.99;62.23;99915.50;2036758;29;19914;-82
2022/06/16 04:29:37;;;;;;;;;;;;;;;25.98;61.99;99906.41;2043357;28;19921;-83
2022/06/16 04:30:37;;;;;;;;;;;;;;;25.98;62.04;99913.94;2036496;29;19911;-82
2022/06/16 04:31:38;;;;;;;;;;;;;;;25.98;62.01;99909.16;2041603;28;19911;-82
2022/06/16 04:32:39;;;;;;;;;;;;;;;25.97;62.10;99918.72;2038676;28;19911;-82
2022/06/16 04:33:39;;;;;;;;;;;;;;;25.98;62.16;99927.81;2036672;29;19978;-82
2022/06/16 04:34:40;;;;;;;;;;;;;;;25.99;62.29;99923.81;2028363;29;19951;-82
2022/06/16 04:35:41;;;;;;;;;;;;;;;25.98;62.35;99919.50;2032266;29;19961;-83
2022/06/16 04:36:41;;;;;;;;;;;;;;;25.99;62.52;99923.81;2030969;29;19911;-82
2022/06/16 04:37:42;;;;;;;;;;;;;;;25.98;62.53;99925.81;2029471;29;20462;-82
2022/06/16 04:38:42;;;;;;;;;;;;;;;25.99;61.97;99921.81;2035692;29;20596;-83
2022/06/16 04:39:43;;;;;;;;;;;;;;;25.98;61.91;99916.72;2042681;28;19921;-83
2022/06/16 04:40:43;;;;;;;;;;;;;;;25.97;62.19;99918.72;2039501;28;19945;-83
2022/06/16 04:41:43;;;;;;;;;;;;;;;25.98;62.34;99919.50;2038880;28;20383;-83
2022/06/16 04:42:44;;;;;;;;;;;;;;;25.96;62.32;99925.50;2042014;28;19958;-83
2022/06/16 04:43:44;;;;;;;;;;;;;;;25.96;62.34;99921.97;2029591;29;19915;-83
2022/06/16 04:44:44;;;;;;;;;;;;;;;25.95;62.19;99926.75;2022138;29;19918;-82
2022/06/16 04:45:45;;;;;;;;;;;;;;;25.96;62.18;99919.22;2018923;29;19911;-82
2022/06/16 04:46:45;;;;;;;;;;;;;;;25.94;62.16;99919.66;2019760;29;19968;-82
2022/06/16 04:47:45;;;;;;;;;;;;;;;25.93;62.46;99923.66;2030623;29;19918;-83
2022/06/16 04:48:46;;;;;;;;;;;;;;;25.94;62.23;99928.00;2030895;29;19922;-83
2022/06/16 04:49:48;;;;;;;;;;;;;;;25.94;62.67;99928.00;2032528;29;19922;-83
2022/06/16 04:50:49;;;;;;;;;;;;;;;25.95;62.20;99934.31;2034302;29;20263;-83
2022/06/16 04:51:49;;;;;;;;;;;;;;;25.94;61.99;99919.66;2029884;29;19907;-82
2022/06/16 04:52:50;;;;;;;;;;;;;;;25.94;62.05;99921.66;2031455;29;19911;-82
2022/06/16 04:53:50;;;;;;;;;;;;;;;25.94;62.20;99911.34;2033224;29;19919;-83
2022/06/16 04:54:51;;;;;;;;;;;;;;;25.94;62.27;99918.91;2029883;29;19918;-82
2022/06/16 04:55:58;;;;;;;;;;;;;;;25.94;62.32;99922.44;2032933;29;19947;-82
2022/06/16 04:56:59;;;;;;;;;;;;;;;25.93;62.39;99922.91;2029505;29;20334;-83
2022/06/16 04:57:59;;;;;;;;;;;;;;;25.93;62.49;99918.13;2036570;29;19922;-82
2022/06/16 04:59:00;;;;;;;;;;;;;;;25.93;62.36;99923.66;2030690;29;19918;-83
2022/06/16 05:00:00;;;;;;;;;;;;;;;25.92;62.48;99924.13;2031328;29;20437;-82
2022/06/16 05:01:02;;;;;;;;;;;;;;;25.91;62.54;99928.91;2038670;29;19914;-82
2022/06/16 05:02:03;;;;;;;;;;;;;;;25.91;62.24;99914.28;2030105;29;19993;-83
2022/06/16 05:03:04;;;;;;;;;;;;;;;25.91;62.34;99928.91;2031074;29;19914;-83
2022/06/16 05:04:04;;;;;;;;;;;;;;;25.90;62.26;99919.06;2034873;29;19974;-83
2022/06/16 05:05:05;;;;;;;;;;;;;;;25.90;62.25;99927.38;2029681;29;19915;-83
2022/06/16 05:06:05;;;;;;;;;;;;;;;25.91;62.57;99922.59;2029673;29;19918;-83
2022/06/16 05:07:06;;;;;;;;;;;;;;;25.90;62.36;99921.84;2030188;29;19918;-83
2022/06/16 05:08:06;;;;;;;;;;;;;;;25.90;62.41;99935.72;2032922;29;19910;-82
2022/06/16 05:09:06;;;;;;;;;;;;;;;25.90;62.50;99927.38;2037272;29;19957;-82
2022/06/16 05:10:07;;;;;;;;;;;;;;;25.89;62.32;99934.16;2029858;29;19944;-82
2022/06/16 05:11:08;;;;;;;;;;;;;;;25.90;62.14;99930.16;2024450;29;19938;-82
2022/06/16 05:12:08;;;;;;;;;;;;;;;25.89;62.35;99934.16;2021406;29;20366;-82
2022/06/16 05:13:09;;;;;;;;;;;;;;;25.87;62.31;99933.84;2023279;29;20425;-83
2022/06/16 05:14:09;;;;;;;;;;;;;;;25.88;62.25;99929.06;2029730;29;19918;-82
2022/06/16 05:15:09;;;;;;;;;;;;;;;25.88;62.42;99923.53;2028138;29;19993;-82
2022/06/16 05:16:10;;;;;;;;;;;;;;;25.86;62.32;99929.53;2030303;29;20429;-82
2022/06/16 05:17:10;;;;;;;;;;;;;;;25.87;62.61;99933.84;2030022;29;19979;-82
2022/06/16 05:18:13;;;;;;;;;;;;;;;25.86;62.26;99932.28;2030923;29;19915;-83
2022/06/16 05:19:14;;;;;;;;;;;;;;;25.86;62.54;99940.63;2021450;29;19962;-81
2022/06/16 05:20:14;;;;;;;;;;;;;;;25.86;62.42;99937.06;2020691;29;19911;-81
2022/06/16 05:21:15;;;;;;;;;;;;;;;25.86;62.38;99937.84;2028267;29;20735;-80
2022/06/16 05:22:15;;;;;;;;;;;;;;;25.85;62.38;99936.31;2028679;29;19918;-80
2022/06/16 05:23:16;;;;;;;;;;;;;;;25.85;62.39;99939.09;2028197;29;19916;-80
2022/06/16 05:24:16;;;;;;;;;;;;;;;25.86;62.30;99942.63;2029586;29;19907;-79
2022/06/16 05:25:16;;;;;;;;;;;;;;;25.85;62.05;99941.09;2026561;29;19911;-80
2022/06/16 05:26:17;;;;;;;;;;;;;;;25.85;62.33;99943.88;2030521;29;19969;-79
2022/06/16 05:27:17;;;;;;;;;;;;;;;25.85;62.28;99941.09;2030572;29;19921;-79
2022/06/16 05:28:18;;;;;;;;;;;;;;;25.85;62.39;99947.44;2029239;29;20029;-80
2022/06/16 05:29:21;;;;;;;;;;;;;;;25.84;62.41;99937.56;2031110;29;19955;-80
2022/06/16 05:30:21;;;;;;;;;;;;;;;25.85;62.42;99939.09;2030346;29;19934;-79
2022/06/16 05:31:23;;;;;;;;;;;;;;;25.84;62.59;99940.34;2033880;29;19922;-80
2022/06/16 05:32:23;;;;;;;;;;;;;;;25.83;62.54;99938.78;2030027;29;19911;-80
2022/06/16 05:33:24;;;;;;;;;;;;;;;25.83;62.33;99936.00;2029614;29;19919;-79